Flight Track Log - Related Links

Times and Time Zones

All times are in EDT time to prevent confusion due to time zone crossing. See the EJA929 flight status page for this flight to view local times or setup timezone preferences in your user account.

Time Position Orientation Groundspeed Altitude Reporting Facility
EDT Latitude Longitude Course Direction KTS MPH feet Rate Location/Type
Fri 07:22:05 PM 34.0000 -118.4667 270° West 160 184 1,800  Level Southern California TRACON
Fri 07:23:05 PM 34.0000 -118.5500 270° West 222 255 5,300 2,504 Climbing Southern California TRACON
Fri 07:24:12 PM 33.9808 -118.6308 254° West 261 300 7,100 1,349 Climbing Los Angeles Center
Fri 07:25:14 PM 33.9525 -118.7264 250° West 283 326 8,200 1,742 Climbing Los Angeles Center
Fri 07:26:16 PM 33.9250 -118.8228 251° West 298 343 10,700 2,256 Climbing Los Angeles Center
Fri 07:27:19 PM 33.9192 -118.9328 266° West 331 381 12,900 2,304 Climbing Los Angeles Center
Fri 07:28:21 PM 33.9125 -119.0433 266° West 333 383 15,500 2,226 Climbing Los Angeles Center
Fri 07:29:23 PM 33.9417 -119.1522 288° West 362 417 17,500 1,935 Climbing Los Angeles Center
Fri 07:30:25 PM 34.0192 -119.2350 318° Northwest 372 428 19,500 2,177 Climbing Los Angeles Center
Fri 07:31:27 PM 34.1153 -119.3406 318° Northwest 391 450 22,000 2,129 Climbing Los Angeles Center
Fri 07:32:29 PM 34.1994 -119.4306 319° Northwest 402 463 23,900 1,887 Climbing Los Angeles Center
Fri 07:33:31 PM 34.2794 -119.5189 318° Northwest 392 451 25,900 1,790 Climbing Los Angeles Center
Fri 07:34:33 PM 34.3603 -119.6089 317° Northwest 394 453 27,600 1,008 Climbing Los Angeles Center
Fri 07:35:36 PM 34.4464 -119.7044 318° Northwest 416 479 28,000 175 Climbing Los Angeles Center
Fri 07:36:50 PM 34.5342 -119.8019 318° Northwest 427 491 28,000  Level Los Angeles Center
Fri 07:37:52 PM 34.6550 -119.9289 319° Northwest 439 505 28,000  Level Los Angeles Center
Fri 07:38:54 PM 34.7481 -120.0303 318° Northwest 447 514 28,000  Level Los Angeles Center
Fri 07:39:56 PM 34.8525 -120.1450 318° Northwest 441 507 28,000  Level Los Angeles Center
Fri 07:40:59 PM 34.9414 -120.2439 318° Northwest 438 504 28,000  Level Los Angeles Center
Fri 07:42:01 PM 35.0303 -120.3408 318° Northwest 435 501 28,000  Level Los Angeles Center
Fri 07:43:03 PM 35.1214 -120.4422 318° Northwest 446 513 28,000  Level Los Angeles Center
Fri 07:44:05 PM 35.2142 -120.5447 318° Northwest 453 521 28,000  Level Los Angeles Center
Fri 07:45:07 PM 35.3236 -120.6678 317° Northwest 447 514 28,000  Level Los Angeles Center
Fri 07:46:09 PM 35.4147 -120.7694 318° Northwest 443 510 28,000  Level Los Angeles Center
Fri 07:47:11 PM 35.5050 -120.8700 318° Northwest 439 505 28,000  Level Los Angeles Center
Fri 07:48:13 PM 35.6042 -120.9589 324° Northwest 441 507 28,000  Level Los Angeles Center
Fri 07:48:35 PM 35.6392 -120.9914 323° Northwest 438 504 28,000  Level Oakland Center
Fri 07:49:37 PM 35.7411 -121.0772 326° Northwest 442 509 28,000  Level Oakland Center
Fri 07:50:39 PM 35.8594 -121.1856 323° Northwest 437 503 28,000  Level Oakland Center
Fri 07:51:40 PM 35.9622 -121.2714 326° Northwest 441 507 28,000  Level Oakland Center
Fri 07:52:42 PM 36.0631 -121.3614 324° Northwest 445 512 28,000 -48 Level Oakland Center
Fri 07:53:44 PM 36.1622 -121.4503 324° Northwest 440 506 27,900 -976 Descending Oakland Center
Fri 07:54:45 PM 36.2608 -121.5375 325° Northwest 431 496 26,000 -1,854 Descending Oakland Center
Fri 07:55:47 PM 36.3564 -121.6250 324° Northwest 427 491 24,100 -1,854 Descending Oakland Center
Fri 07:56:48 PM 36.4508 -121.7044 326° Northwest 409 471 22,200 -2,047 Descending Oakland Center
Fri 07:57:12 PM 36.5000 -121.7500 323° Northwest 407 468 21,200 -2,071 Descending Northern Cal TRACON
Fri 07:58:12 PM 36.6000 -121.8333 326° Northwest 399 459 19,300 -1,884 Descending Northern Cal TRACON
Fri 07:59:13 PM 36.6833 -121.9000 327° Northwest 393 452 17,400 -1,785 Descending Northern Cal TRACON
Fri 08:00:13 PM 36.7833 -121.9667 332° Northwest 386 444 15,700 -1,700 Descending Northern Cal TRACON
Fri 08:01:13 PM 36.8833 -122.0000 345° North 380 437 14,000 -1,573 Descending Northern Cal TRACON
Fri 08:01:56 PM 36.9406 -122.0158 348° North 375 432 13,000 -1,543 Descending Oakland Center
Fri 08:02:58 PM 37.0403 -122.0406 349° North 366 421 11,300 -1,452 Descending Oakland Center
Fri 08:04:00 PM 37.1347 -122.0661 348° North 350 403 10,000 -732 Descending Oakland Center
Fri 08:05:01 PM 37.2167 -122.0867 349° North 301 346 9,800 -829 Descending Oakland Center
Fri 08:06:03 PM 37.3086 -122.1119 348° North 281 323 8,300 -1,415 Descending Oakland Center
Fri 08:07:04 PM 37.3850 -122.1319 348° North 281 323 6,900 -1,220 Descending Oakland Center
Fri 08:08:06 PM 37.4519 -122.1489 349° North 255 293 5,800 -1,597 Descending Oakland Center
Fri 08:09:08 PM 37.5114 -122.1667 347° North 230 265 3,600 -1,463 Descending Oakland Center
Fri 08:10:09 PM 37.5542 -122.2136 319° Northwest 216 249 2,800 -1,000 Descending Oakland Center
Fri 08:11:14 PM 37.5833 -122.2833 298° West 169 194 1,500 -1,008 Descending Northern Cal TRACON
Fri 08:12:14 PM 37.6000 -122.3333 293° West 140 161 700 -800 Descending Northern Cal TRACON
Fri 08:15:00 PM 37.6167 -122.3667 322° Northwest  Level FlightAware Approximate

Login

Don't have an account? Register now (free) for customized features, flight alerts, and more!